createdAt,value
2018-09-12T00:02:40.238Z,19.50
2018-09-12T00:06:42.819Z,19.50
2018-09-12T00:10:45.306Z,19.50
2018-09-12T00:14:47.822Z,19.50
2018-09-12T00:18:50.426Z,19.50
2018-09-12T00:22:52.969Z,19.40
2018-09-12T00:26:55.532Z,19.50
2018-09-12T00:30:58.038Z,19.40
2018-09-12T00:35:00.595Z,19.40
2018-09-12T00:39:04.783Z,19.40
2018-09-12T00:43:07.331Z,19.40
2018-09-12T00:47:09.859Z,19.40
2018-09-12T00:51:12.474Z,19.40
2018-09-12T00:55:15.056Z,19.30
2018-09-12T00:59:17.616Z,19.30
2018-09-12T01:03:20.138Z,19.30
2018-09-12T01:07:22.681Z,19.40
2018-09-12T01:11:25.220Z,19.40
2018-09-12T01:15:27.737Z,19.40
2018-09-12T01:19:30.456Z,19.40
2018-09-12T01:23:32.996Z,19.40
2018-09-12T01:27:35.620Z,19.40
2018-09-12T01:31:38.147Z,19.30
2018-09-12T01:35:40.710Z,19.30
2018-09-12T01:39:43.227Z,19.30
2018-09-12T01:43:45.717Z,19.30
2018-09-12T01:47:48.706Z,19.30
2018-09-12T01:51:51.443Z,19.30
2018-09-12T01:55:53.980Z,19.30
2018-09-12T01:59:56.551Z,19.20
2018-09-12T02:04:00.258Z,19.20
2018-09-12T02:08:02.814Z,19.20
2018-09-12T02:12:05.330Z,19.20
2018-09-12T02:16:08.025Z,19.20
2018-09-12T02:20:10.605Z,19.20
2018-09-12T02:24:13.175Z,19.20
2018-09-12T02:28:15.754Z,19.20
2018-09-12T02:32:18.277Z,19.20
2018-09-12T02:36:26.324Z,19.10
2018-09-12T02:40:28.854Z,19.10
2018-09-12T02:44:31.445Z,19.10
2018-09-12T02:48:33.988Z,19.10
2018-09-12T02:52:36.697Z,19.10
2018-09-12T02:56:39.233Z,19.00
2018-09-12T03:00:41.754Z,19.00
2018-09-12T03:04:49.975Z,19.00
2018-09-12T03:08:52.537Z,19.00
2018-09-12T03:12:55.099Z,19.00
2018-09-12T03:16:57.657Z,18.90
2018-09-12T03:21:00.426Z,19.00
2018-09-12T03:25:02.826Z,19.00
2018-09-12T03:29:05.418Z,19.00
2018-09-12T03:33:07.951Z,18.90
2018-09-12T03:37:10.539Z,18.90
2018-09-12T03:41:13.160Z,18.90
2018-09-12T03:45:15.853Z,18.90
2018-09-12T03:49:18.471Z,18.90
2018-09-12T03:53:21.045Z,18.90
2018-09-12T03:57:23.591Z,18.90
2018-09-12T04:01:26.234Z,18.80
2018-09-12T04:05:28.745Z,18.80
2018-09-12T04:09:31.322Z,18.70
2018-09-12T04:13:33.820Z,18.60
2018-09-12T04:17:36.998Z,18.60
2018-09-12T04:21:39.554Z,18.50
2018-09-12T04:25:42.051Z,18.50
2018-09-12T04:29:44.620Z,18.50
2018-09-12T04:33:47.221Z,18.40
2018-09-12T04:37:49.724Z,18.40
2018-09-12T04:41:52.257Z,18.40
2018-09-12T04:45:55.020Z,18.40
2018-09-12T04:49:57.616Z,18.40
2018-09-12T04:54:00.166Z,18.30
2018-09-12T04:58:02.684Z,18.40
2018-09-12T05:02:05.311Z,18.40
2018-09-12T05:06:07.903Z,18.40
2018-09-12T05:10:10.523Z,18.40
2018-09-12T05:14:13.048Z,18.40
2018-09-12T05:18:15.673Z,18.40
2018-09-12T05:22:18.207Z,18.40
2018-09-12T16:40:27.303Z,15.60
2018-09-12T16:44:29.856Z,15.50
2018-09-12T16:48:32.375Z,15.60
2018-09-12T16:52:34.978Z,15.60
2018-09-12T16:56:37.522Z,15.60
2018-09-12T17:00:40.100Z,15.60
2018-09-12T17:04:42.643Z,15.60
2018-09-12T17:08:45.459Z,15.60
2018-09-12T17:12:48.028Z,15.60
2018-09-12T17:16:50.554Z,15.70
2018-09-12T17:20:53.114Z,15.70
2018-09-12T17:24:55.710Z,15.60
2018-09-12T17:28:58.235Z,15.70
2018-09-12T17:33:00.857Z,15.60
2018-09-12T17:37:03.391Z,15.60
2018-09-12T17:41:06.025Z,15.50
2018-09-12T17:45:08.755Z,15.60
2018-09-12T17:49:11.321Z,15.60
2018-09-12T17:53:13.957Z,15.60
2018-09-12T17:57:16.755Z,15.50
2018-09-12T18:01:19.487Z,15.50
2018-09-12T18:05:22.189Z,15.50
2018-09-12T18:09:24.882Z,15.50
2018-09-12T18:13:27.407Z,15.50
2018-09-12T18:17:30.042Z,15.50
2018-09-12T18:21:32.664Z,15.50
2018-09-12T18:25:35.243Z,15.40
2018-09-12T18:29:37.861Z,15.40
2018-09-12T18:33:40.407Z,15.40
2018-09-12T18:37:42.993Z,15.40
2018-09-12T18:41:45.621Z,15.30
2018-09-12T18:45:48.795Z,15.30
2018-09-12T18:49:51.471Z,15.30
2018-09-12T18:53:54.545Z,15.30
2018-09-12T18:57:57.200Z,15.30
2018-09-12T19:01:59.879Z,15.20
2018-09-12T19:06:02.585Z,15.10
2018-09-12T19:10:05.262Z,15.10
2018-09-12T19:14:08.059Z,15.10
2018-09-12T19:18:11.200Z,15.10
2018-09-12T19:22:14.177Z,15.10
2018-09-12T19:26:17.222Z,15.10
2018-09-12T19:30:19.979Z,15.10
2018-09-12T19:34:22.930Z,15.00
2018-09-12T19:38:26.003Z,15.00
2018-09-12T19:42:28.895Z,15.10
2018-09-12T19:46:31.670Z,15.00
2018-09-12T19:50:34.382Z,15.10
2018-09-12T19:54:37.128Z,15.20
2018-09-12T19:58:40.004Z,15.10
2018-09-12T20:02:42.747Z,15.10
2018-09-12T20:06:45.483Z,15.00
2018-09-12T20:10:48.079Z,15.00
2018-09-12T20:14:50.972Z,14.90
2018-09-12T20:18:53.607Z,14.90
2018-09-12T20:22:56.195Z,14.90
2018-09-12T20:26:58.843Z,14.80
2018-09-12T20:31:01.436Z,14.70
2018-09-12T20:35:04.140Z,14.70
2018-09-12T20:39:08.322Z,14.60
2018-09-12T20:43:11.015Z,14.60
2018-09-12T20:47:13.718Z,14.60
2018-09-12T20:51:16.345Z,14.50
2018-09-12T20:55:18.974Z,14.40
2018-09-12T20:59:21.653Z,14.40
2018-09-12T21:07:33.498Z,14.40
2018-09-12T21:11:36.189Z,14.30
2018-09-12T21:15:38.797Z,14.40
2018-09-12T21:19:41.471Z,14.30
2018-09-12T21:23:44.169Z,14.30
2018-09-12T21:27:47.103Z,14.40
2018-09-12T21:31:49.745Z,14.40
2018-09-12T21:35:52.417Z,14.40
2018-09-12T21:39:55.067Z,14.40
2018-09-12T21:43:57.640Z,14.40
2018-09-12T21:48:00.286Z,14.40
2018-09-12T21:52:02.872Z,14.30
2018-09-12T21:56:05.567Z,14.40
2018-09-12T22:00:08.390Z,14.40
2018-09-12T22:04:10.903Z,14.40
2018-09-12T22:08:13.514Z,14.40
2018-09-12T22:12:16.324Z,14.40
2018-09-12T22:16:18.932Z,14.40
2018-09-12T22:20:21.580Z,14.40
2018-09-12T22:24:24.215Z,14.40
2018-09-12T22:28:26.879Z,14.30
2018-09-12T22:32:29.549Z,14.20
2018-09-12T22:36:32.185Z,14.20
2018-09-12T22:40:34.845Z,14.20
2018-09-12T22:44:37.530Z,14.20
2018-09-12T22:48:40.147Z,14.20
2018-09-12T22:52:42.734Z,14.20
2018-09-12T22:56:45.333Z,14.10
2018-09-12T23:00:47.891Z,14.10
2018-09-12T23:04:50.476Z,14.10
2018-09-12T23:08:53.127Z,14.10
2018-09-12T23:12:55.752Z,14.20
2018-09-12T23:16:58.496Z,14.00
2018-09-12T23:21:01.171Z,14.10
2018-09-12T23:25:03.828Z,14.10
2018-09-12T23:29:06.416Z,14.10
2018-09-12T23:33:09.054Z,14.10
2018-09-12T23:37:11.629Z,14.10
2018-09-12T23:41:14.169Z,14.10
2018-09-12T23:45:16.809Z,14.00
2018-09-12T23:49:19.447Z,14.00
2018-09-12T23:53:22.057Z,13.90
2018-09-12T23:57:24.758Z,13.90
